sensor_id;sensor_type;location;lat;lon;timestamp;pressure;altitude;pressure_sealevel;temperature;humidity
32452;BME280;45528;52.102;5.242;2022-11-15T00:00:16;100440.0;;;13.72;59.84
32452;BME280;45528;52.102;5.242;2022-11-15T00:01:53;100436.0;;;13.74;60.02
32452;BME280;45528;52.102;5.242;2022-11-15T00:05:05;100433.0;;;13.78;59.91
32452;BME280;45528;52.102;5.242;2022-11-15T00:06:42;100427.0;;;13.78;59.91
32452;BME280;45528;52.102;5.242;2022-11-15T00:08:18;100426.0;;;13.81;60.11
32452;BME280;45528;52.102;5.242;2022-11-15T00:09:55;100430.0;;;13.86;60.05
32452;BME280;45528;52.102;5.242;2022-11-15T00:13:09;100432.0;;;13.86;60.09
32452;BME280;45528;52.102;5.242;2022-11-15T00:14:46;100428.0;;;13.81;60.49
32452;BME280;45528;52.102;5.242;2022-11-15T00:16:22;100430.0;;;13.87;60.36
32452;BME280;45528;52.102;5.242;2022-11-15T00:19:35;100427.0;;;13.87;60.5
32452;BME280;45528;52.102;5.242;2022-11-15T00:21:12;100423.0;;;13.97;60.22
32452;BME280;45528;52.102;5.242;2022-11-15T00:22:52;100424.0;;;13.91;60.56
32452;BME280;45528;52.102;5.242;2022-11-15T00:26:04;100420.0;;;13.9;60.7
32452;BME280;45528;52.102;5.242;2022-11-15T00:27:41;100421.0;;;13.9;60.78
32452;BME280;45528;52.102;5.242;2022-11-15T00:29:17;100419.0;;;13.9;60.9
32452;BME280;45528;52.102;5.242;2022-11-15T00:30:53;100419.0;;;13.91;60.97
32452;BME280;45528;52.102;5.242;2022-11-15T00:34:11;100419.0;;;13.91;61.1
32452;BME280;45528;52.102;5.242;2022-11-15T00:35:47;100417.0;;;13.9;61.1
32452;BME280;45528;52.102;5.242;2022-11-15T00:37:23;100415.0;;;13.89;61.23
32452;BME280;45528;52.102;5.242;2022-11-15T00:40:35;100408.0;;;13.86;61.46
32452;BME280;45528;52.102;5.242;2022-11-15T00:42:11;100410.0;;;13.8;61.66
32452;BME280;45528;52.102;5.242;2022-11-15T00:43:47;100413.0;;;13.86;61.65
32452;BME280;45528;52.102;5.242;2022-11-15T00:47:01;100408.0;;;13.89;61.59
32452;BME280;45528;52.102;5.242;2022-11-15T00:48:37;100405.0;;;13.9;61.67
32452;BME280;45528;52.102;5.242;2022-11-15T00:50:13;100409.0;;;14.0;61.53
32452;BME280;45528;52.102;5.242;2022-11-15T00:51:50;100402.0;;;13.87;61.91
32452;BME280;45528;52.102;5.242;2022-11-15T00:55:03;100403.0;;;13.89;61.84
32452;BME280;45528;52.102;5.242;2022-11-15T00:56:40;100405.0;;;13.86;62.13
32452;BME280;45528;52.102;5.242;2022-11-15T00:58:16;100400.0;;;13.93;62.08
32452;BME280;45528;52.102;5.242;2022-11-15T01:01:28;100397.0;;;14.0;61.88
32452;BME280;45528;52.102;5.242;2022-11-15T01:03:05;100396.0;;;14.03;61.87
32452;BME280;45528;52.102;5.242;2022-11-15T01:04:41;100397.0;;;14.06;61.84
32452;BME280;45528;52.102;5.242;2022-11-15T01:07:53;100396.0;;;14.07;61.8
32452;BME280;45528;52.102;5.242;2022-11-15T01:09:31;100388.0;;;14.1;61.71
32452;BME280;45528;52.102;5.242;2022-11-15T01:11:10;100382.0;;;14.15;61.72
32452;BME280;45528;52.102;5.242;2022-11-15T01:12:47;100383.0;;;14.14;61.67
32452;BME280;45528;52.102;5.242;2022-11-15T01:16:05;100388.0;;;14.16;61.87
32452;BME280;45528;52.102;5.242;2022-11-15T01:17:41;100383.0;;;14.2;61.83
32452;BME280;45528;52.102;5.242;2022-11-15T01:19:17;100378.0;;;14.19;61.97
32452;BME280;45528;52.102;5.242;2022-11-15T01:22:30;100380.0;;;14.18;61.99
32452;BME280;45528;52.102;5.242;2022-11-15T01:24:07;100375.0;;;14.25;61.91
32452;BME280;45528;52.102;5.242;2022-11-15T01:25:44;100376.0;;;14.24;62.01
32452;BME280;45528;52.102;5.242;2022-11-15T01:27:20;100377.0;;;14.26;61.98
32452;BME280;45528;52.102;5.242;2022-11-15T01:30:32;100386.0;;;14.28;62.11
32452;BME280;45528;52.102;5.242;2022-11-15T01:32:08;100388.0;;;14.32;62.01
32452;BME280;45528;52.102;5.242;2022-11-15T01:33:45;100378.0;;;14.33;61.95
32452;BME280;45528;52.102;5.242;2022-11-15T01:36:59;100373.0;;;14.36;61.85
32452;BME280;45528;52.102;5.242;2022-11-15T01:38:36;100374.0;;;14.35;61.98
32452;BME280;45528;52.102;5.242;2022-11-15T01:40:14;100368.0;;;14.45;61.85
32452;BME280;45528;52.102;5.242;2022-11-15T01:43:28;100375.0;;;14.45;62.05
32452;BME280;45528;52.102;5.242;2022-11-15T01:45:12;100372.0;;;14.45;61.99
32452;BME280;45528;52.102;5.242;2022-11-15T01:46:51;100366.0;;;14.46;62.02
32452;BME280;45528;52.102;5.242;2022-11-15T01:48:30;100365.0;;;14.48;62.21
32452;BME280;45528;52.102;5.242;2022-11-15T01:51:51;100357.0;;;14.56;61.96
32452;BME280;45528;52.102;5.242;2022-11-15T01:53:28;100358.0;;;14.6;61.75
32452;BME280;45528;52.102;5.242;2022-11-15T01:55:09;100363.0;;;14.61;62.1
32452;BME280;45528;52.102;5.242;2022-11-15T01:56:52;100361.0;;;14.67;61.93
32452;BME280;45528;52.102;5.242;2022-11-15T02:00:08;100359.0;;;14.65;62.06
32452;BME280;45528;52.102;5.242;2022-11-15T02:01:45;100357.0;;;14.68;62.13
32452;BME280;45528;52.102;5.242;2022-11-15T02:03:26;100356.0;;;14.66;62.27
32452;BME280;45528;52.102;5.242;2022-11-15T02:05:09;100360.0;;;14.65;62.66
32452;BME280;45528;52.102;5.242;2022-11-15T02:08:24;100355.0;;;14.74;62.51
32452;BME280;45528;52.102;5.242;2022-11-15T02:10:06;100350.0;;;14.82;62.35
32452;BME280;45528;52.102;5.242;2022-11-15T02:11:47;100349.0;;;14.91;62.15
32452;BME280;45528;52.102;5.242;2022-11-15T02:13:24;100347.0;;;14.99;61.87
32452;BME280;45528;52.102;5.242;2022-11-15T02:16:47;100342.0;;;14.95;62.09
32452;BME280;45528;52.102;5.242;2022-11-15T02:18:35;100334.0;;;14.93;62.2
32452;BME280;45528;52.102;5.242;2022-11-15T02:20:32;100332.0;;;14.98;62.17
32452;BME280;45528;52.102;5.242;2022-11-15T02:22:37;100330.0;;;15.0;62.2
32452;BME280;45528;52.102;5.242;2022-11-15T02:26:48;100327.0;;;15.08;62.05
32452;BME280;45528;52.102;5.242;2022-11-15T02:28:50;100314.0;;;15.11;62.0
32452;BME280;45528;52.102;5.242;2022-11-15T02:30:38;100311.0;;;15.15;61.92
32452;BME280;45528;52.102;5.242;2022-11-15T02:32:20;100306.0;;;15.08;62.26
32452;BME280;45528;52.102;5.242;2022-11-15T02:35:58;100306.0;;;15.2;62.07
32452;BME280;45528;52.102;5.242;2022-11-15T02:37:40;100306.0;;;15.17;62.14
32452;BME280;45528;52.102;5.242;2022-11-15T02:39:27;100302.0;;;15.26;61.99
32452;BME280;45528;52.102;5.242;2022-11-15T02:41:09;100298.0;;;15.27;62.11
32452;BME280;45528;52.102;5.242;2022-11-15T02:44:10;100300.0;;;15.31;61.99
32452;BME280;45528;52.102;5.242;2022-11-15T02:45:52;100296.0;;;15.38;61.58
32452;BME280;45528;52.102;5.242;2022-11-15T02:47:34;100289.0;;;15.39;61.67
32452;BME280;45528;52.102;5.242;2022-11-15T02:49:17;100288.0;;;15.39;61.9
32452;BME280;45528;52.102;5.242;2022-11-15T02:52:32;100284.0;;;15.37;62.07
32452;BME280;45528;52.102;5.242;2022-11-15T02:54:12;100280.0;;;15.45;61.96
32452;BME280;45528;52.102;5.242;2022-11-15T02:55:51;100276.0;;;15.45;62.16
32452;BME280;45528;52.102;5.242;2022-11-15T02:57:39;100273.0;;;15.51;61.88
32452;BME280;45528;52.102;5.242;2022-11-15T03:01:38;100270.0;;;15.62;61.66
32452;BME280;45528;52.102;5.242;2022-11-15T03:05:20;100273.0;;;15.63;61.73
32452;BME280;45528;52.102;5.242;2022-11-15T03:07:05;100275.0;;;15.66;61.84
32452;BME280;45528;52.102;5.242;2022-11-15T03:08:55;100280.0;;;15.63;61.84
32452;BME280;45528;52.102;5.242;2022-11-15T03:10:42;100283.0;;;15.65;61.7
32452;BME280;45528;52.102;5.242;2022-11-15T03:12:27;100278.0;;;15.7;61.7
32452;BME280;45528;52.102;5.242;2022-11-15T03:14:12;100278.0;;;15.71;61.37
32452;BME280;45528;52.102;5.242;2022-11-15T03:17:45;100277.0;;;15.69;61.9
32452;BME280;45528;52.102;5.242;2022-11-15T03:19:29;100280.0;;;15.68;61.77
32452;BME280;45528;52.102;5.242;2022-11-15T03:21:11;100275.0;;;15.72;61.84
32452;BME280;45528;52.102;5.242;2022-11-15T03:22:52;100275.0;;;15.78;61.78
32452;BME280;45528;52.102;5.242;2022-11-15T03:24:33;100281.0;;;15.77;61.88
32452;BME280;45528;52.102;5.242;2022-11-15T03:27:55;100276.0;;;15.82;61.87
32452;BME280;45528;52.102;5.242;2022-11-15T03:29:35;100280.0;;;15.85;61.76
32452;BME280;45528;52.102;5.242;2022-11-15T03:31:49;100276.0;;;15.87;61.75
32452;BME280;45528;52.102;5.242;2022-11-15T03:34:02;100285.0;;;15.87;61.95
32452;BME280;45528;52.102;5.242;2022-11-15T03:35:43;100281.0;;;15.87;61.68
32452;BME280;45528;52.102;5.242;2022-11-15T03:37:25;100284.0;;;15.93;61.76
32452;BME280;45528;52.102;5.242;2022-11-15T03:40:47;100282.0;;;15.92;61.65
32452;BME280;45528;52.102;5.242;2022-11-15T03:42:31;100285.0;;;15.97;61.77
32452;BME280;45528;52.102;5.242;2022-11-15T03:44:18;100283.0;;;16.03;61.6
32452;BME280;45528;52.102;5.242;2022-11-15T03:46:00;100287.0;;;15.95;61.97
32452;BME280;45528;52.102;5.242;2022-11-15T03:47:40;100287.0;;;16.02;62.24
32452;BME280;45528;52.102;5.242;2022-11-15T03:51:02;100284.0;;;15.97;62.53
32452;BME280;45528;52.102;5.242;2022-11-15T03:52:41;100284.0;;;16.11;62.11
32452;BME280;45528;52.102;5.242;2022-11-15T03:54:18;100284.0;;;16.16;61.96
32452;BME280;45528;52.102;5.242;2022-11-15T03:55:54;100275.0;;;16.18;62.06
32452;BME280;45528;52.102;5.242;2022-11-15T03:59:07;100274.0;;;16.12;62.21
32452;BME280;45528;52.102;5.242;2022-11-15T04:00:43;100276.0;;;16.2;62.21
32452;BME280;45528;52.102;5.242;2022-11-15T04:02:19;100275.0;;;16.23;62.07
32452;BME280;45528;52.102;5.242;2022-11-15T04:05:31;100276.0;;;16.3;61.99
32452;BME280;45528;52.102;5.242;2022-11-15T04:07:07;100271.0;;;16.29;62.18
32452;BME280;45528;52.102;5.242;2022-11-15T04:08:43;100271.0;;;16.3;61.98
32452;BME280;45528;52.102;5.242;2022-11-15T04:11:56;100280.0;;;16.36;61.98
32452;BME280;45528;52.102;5.242;2022-11-15T04:13:32;100276.0;;;16.43;61.79
32452;BME280;45528;52.102;5.242;2022-11-15T04:15:11;100272.0;;;16.48;61.81
32452;BME280;45528;52.102;5.242;2022-11-15T04:16:47;100269.0;;;16.5;61.89
32452;BME280;45528;52.102;5.242;2022-11-15T04:24:14;100259.0;;;16.57;61.87
32452;BME280;45528;52.102;5.242;2022-11-15T04:25:52;100261.0;;;16.57;61.8
32452;BME280;45528;52.102;5.242;2022-11-15T04:27:30;100263.0;;;16.54;61.83
32452;BME280;45528;52.102;5.242;2022-11-15T04:31:14;100260.0;;;16.59;61.83
32452;BME280;45528;52.102;5.242;2022-11-15T04:32:50;100258.0;;;16.63;61.79
32452;BME280;45528;52.102;5.242;2022-11-15T04:34:27;100260.0;;;16.61;61.91
32452;BME280;45528;52.102;5.242;2022-11-15T04:37:20;100260.0;;;16.61;61.86
32452;BME280;45528;52.102;5.242;2022-11-15T04:38:58;100258.0;;;16.57;62.22
32452;BME280;45528;52.102;5.242;2022-11-15T04:40:34;100258.0;;;16.62;62.27
32452;BME280;45528;52.102;5.242;2022-11-15T04:42:12;100257.0;;;16.68;62.08
32452;BME280;45528;52.102;5.242;2022-11-15T04:45:24;100259.0;;;16.68;62.05
32452;BME280;45528;52.102;5.242;2022-11-15T04:47:01;100255.0;;;16.68;62.03
32452;BME280;45528;52.102;5.242;2022-11-15T04:48:38;100249.0;;;16.68;62.11
32452;BME280;45528;52.102;5.242;2022-11-15T04:51:52;100250.0;;;16.72;62.07
32452;BME280;45528;52.102;5.242;2022-11-15T04:53:28;100257.0;;;16.71;61.95
32452;BME280;45528;52.102;5.242;2022-11-15T04:55:05;100260.0;;;16.72;62.23
32452;BME280;45528;52.102;5.242;2022-11-15T04:56:42;100266.0;;;16.77;61.97
32452;BME280;45528;52.102;5.242;2022-11-15T04:59:54;100260.0;;;16.81;61.95
32452;BME280;45528;52.102;5.242;2022-11-15T05:01:30;100258.0;;;16.81;62.0
32452;BME280;45528;52.102;5.242;2022-11-15T05:04:23;100262.0;;;16.82;62.02
32452;BME280;45528;52.102;5.242;2022-11-15T05:05:59;100264.0;;;16.87;61.98
32452;BME280;45528;52.102;5.242;2022-11-15T05:07:36;100269.0;;;16.86;61.84
32452;BME280;45528;52.102;5.242;2022-11-15T05:09:13;100265.0;;;16.89;61.83
32452;BME280;45528;52.102;5.242;2022-11-15T05:12:25;100262.0;;;16.91;61.91
32452;BME280;45528;52.102;5.242;2022-11-15T05:14:01;100264.0;;;16.89;61.95
32452;BME280;45528;52.102;5.242;2022-11-15T05:15:38;100263.0;;;16.95;62.02
32452;BME280;45528;52.102;5.242;2022-11-15T05:18:50;100267.0;;;16.96;61.87
32452;BME280;45528;52.102;5.242;2022-11-15T05:20:27;100270.0;;;16.96;61.95
32452;BME280;45528;52.102;5.242;2022-11-15T05:22:03;100270.0;;;17.0;61.92
32452;BME280;45528;52.102;5.242;2022-11-15T05:25:16;100273.0;;;17.04;61.91
32452;BME280;45528;52.102;5.242;2022-11-15T05:26:53;100272.0;;;17.05;61.91
32452;BME280;45528;52.102;5.242;2022-11-15T05:28:29;100271.0;;;17.09;61.83
32452;BME280;45528;52.102;5.242;2022-11-15T05:30:07;100273.0;;;17.11;61.85
32452;BME280;45528;52.102;5.242;2022-11-15T05:33:19;100272.0;;;17.11;61.85
32452;BME280;45528;52.102;5.242;2022-11-15T05:34:56;100274.0;;;17.12;61.57
32452;BME280;45528;52.102;5.242;2022-11-15T05:36:36;100274.0;;;17.09;61.87
32452;BME280;45528;52.102;5.242;2022-11-15T05:39:49;100273.0;;;17.12;61.89
32452;BME280;45528;52.102;5.242;2022-11-15T05:41:30;100276.0;;;17.16;61.53
32452;BME280;45528;52.102;5.242;2022-11-15T05:43:09;100273.0;;;17.23;61.56
32452;BME280;45528;52.102;5.242;2022-11-15T05:44:48;100280.0;;;17.25;61.65
32452;BME280;45528;52.102;5.242;2022-11-15T05:48:06;100281.0;;;17.2;61.93
32452;BME280;45528;52.102;5.242;2022-11-15T05:49:45;100283.0;;;17.25;61.55
32452;BME280;45528;52.102;5.242;2022-11-15T05:51:23;100286.0;;;17.27;61.53
32452;BME280;45528;52.102;5.242;2022-11-15T05:54:37;100289.0;;;17.25;61.74
32452;BME280;45528;52.102;5.242;2022-11-15T05:56:15;100285.0;;;17.27;61.76
32452;BME280;45528;52.102;5.242;2022-11-15T05:57:52;100287.0;;;17.32;61.66
32452;BME280;45528;52.102;5.242;2022-11-15T05:59:29;100287.0;;;17.32;61.83
32452;BME280;45528;52.102;5.242;2022-11-15T06:02:42;100288.0;;;17.34;61.41
32452;BME280;45528;52.102;5.242;2022-11-15T06:04:18;100289.0;;;17.38;61.46
32452;BME280;45528;52.102;5.242;2022-11-15T06:05:54;100290.0;;;17.36;61.36
32452;BME280;45528;52.102;5.242;2022-11-15T06:09:09;100285.0;;;17.41;61.5
32452;BME280;45528;52.102;5.242;2022-11-15T06:10:45;100290.0;;;17.39;61.5
32452;BME280;45528;52.102;5.242;2022-11-15T06:12:21;100283.0;;;17.43;61.61
32452;BME280;45528;52.102;5.242;2022-11-15T06:13:57;100289.0;;;17.43;61.68
32452;BME280;45528;52.102;5.242;2022-11-15T06:17:10;100287.0;;;17.37;61.66
32452;BME280;45528;52.102;5.242;2022-11-15T06:18:47;100294.0;;;17.41;61.68
32452;BME280;45528;52.102;5.242;2022-11-15T06:20:23;100296.0;;;17.43;61.56
32452;BME280;45528;52.102;5.242;2022-11-15T06:23:35;100297.0;;;17.46;61.81
32452;BME280;45528;52.102;5.242;2022-11-15T06:25:11;100302.0;;;17.43;61.55
32452;BME280;45528;52.102;5.242;2022-11-15T06:26:47;100305.0;;;17.41;61.93
32452;BME280;45528;52.102;5.242;2022-11-15T06:30:00;100300.0;;;17.43;61.64
32452;BME280;45528;52.102;5.242;2022-11-15T06:31:36;100301.0;;;17.46;61.71
32452;BME280;45528;52.102;5.242;2022-11-15T06:33:12;100303.0;;;17.46;61.84
32452;BME280;45528;52.102;5.242;2022-11-15T06:36:24;100303.0;;;17.47;61.95
32452;BME280;45528;52.102;5.242;2022-11-15T06:38:02;100305.0;;;17.46;61.79
32452;BME280;45528;52.102;5.242;2022-11-15T06:39:40;100301.0;;;17.5;61.78
32452;BME280;45528;52.102;5.242;2022-11-15T06:41:17;100303.0;;;17.55;61.64
32452;BME280;45528;52.102;5.242;2022-11-15T06:44:34;100303.0;;;17.59;61.44
32452;BME280;45528;52.102;5.242;2022-11-15T06:46:10;100302.0;;;17.55;61.6
32452;BME280;45528;52.102;5.242;2022-11-15T06:47:47;100309.0;;;17.62;61.53
32452;BME280;45528;52.102;5.242;2022-11-15T06:51:01;100309.0;;;17.61;61.56
32452;BME280;45528;52.102;5.242;2022-11-15T06:52:38;100313.0;;;17.59;61.34
32452;BME280;45528;52.102;5.242;2022-11-15T06:54:15;100316.0;;;17.53;61.35
32452;BME280;45528;52.102;5.242;2022-11-15T06:55:51;100315.0;;;17.59;61.55
32452;BME280;45528;52.102;5.242;2022-11-15T06:59:04;100322.0;;;17.59;61.61
32452;BME280;45528;52.102;5.242;2022-11-15T07:00:41;100326.0;;;17.52;61.71
32452;BME280;45528;52.102;5.242;2022-11-15T07:02:17;100323.0;;;17.56;61.74
32452;BME280;45528;52.102;5.242;2022-11-15T07:05:30;100333.0;;;17.59;61.45
32452;BME280;45528;52.102;5.242;2022-11-15T07:07:07;100330.0;;;17.63;61.48
32452;BME280;45528;52.102;5.242;2022-11-15T07:08:43;100331.0;;;17.63;61.41
32452;BME280;45528;52.102;5.242;2022-11-15T07:11:56;100330.0;;;17.63;61.45
32452;BME280;45528;52.102;5.242;2022-11-15T07:13:34;100333.0;;;17.62;61.5
32452;BME280;45528;52.102;5.242;2022-11-15T07:15:11;100337.0;;;17.64;61.27
32452;BME280;45528;52.102;5.242;2022-11-15T07:16:47;100332.0;;;17.66;61.54
32452;BME280;45528;52.102;5.242;2022-11-15T07:19:59;100334.0;;;17.59;61.71
32452;BME280;45528;52.102;5.242;2022-11-15T07:21:35;100326.0;;;17.59;61.56
32452;BME280;45528;52.102;5.242;2022-11-15T07:23:13;100335.0;;;17.62;61.65
32452;BME280;45528;52.102;5.242;2022-11-15T07:26:25;100335.0;;;17.61;61.52
32452;BME280;45528;52.102;5.242;2022-11-15T07:28:01;100338.0;;;17.66;61.26
32452;BME280;45528;52.102;5.242;2022-11-15T07:29:38;100343.0;;;17.7;61.31
32452;BME280;45528;52.102;5.242;2022-11-15T07:32:52;100344.0;;;17.7;61.31
32452;BME280;45528;52.102;5.242;2022-11-15T07:34:30;100338.0;;;17.7;61.25
32452;BME280;45528;52.102;5.242;2022-11-15T07:36:07;100340.0;;;17.72;61.13
32452;BME280;45528;52.102;5.242;2022-11-15T07:37:44;100337.0;;;17.68;61.22
32452;BME280;45528;52.102;5.242;2022-11-15T07:41:06;100334.0;;;17.68;61.33
32452;BME280;45528;52.102;5.242;2022-11-15T07:42:59;100330.0;;;17.66;61.4
32452;BME280;45528;52.102;5.242;2022-11-15T07:44:35;100328.0;;;17.66;61.39
32452;BME280;45528;52.102;5.242;2022-11-15T07:46:11;100320.0;;;17.68;61.25
32452;BME280;45528;52.102;5.242;2022-11-15T07:49:24;100317.0;;;17.7;61.25
32452;BME280;45528;52.102;5.242;2022-11-15T07:51:01;100320.0;;;17.62;61.03
32452;BME280;45528;52.102;5.242;2022-11-15T07:52:38;100320.0;;;17.64;61.22
32452;BME280;45528;52.102;5.242;2022-11-15T07:55:50;100327.0;;;17.62;61.27
32452;BME280;45528;52.102;5.242;2022-11-15T07:57:26;100321.0;;;17.61;61.29
32452;BME280;45528;52.102;5.242;2022-11-15T07:59:03;100324.0;;;17.68;61.19
32452;BME280;45528;52.102;5.242;2022-11-15T08:00:39;100324.0;;;17.68;61.16
32452;BME280;45528;52.102;5.242;2022-11-15T08:03:54;100326.0;;;17.68;61.23
32452;BME280;45528;52.102;5.242;2022-11-15T08:05:30;100323.0;;;17.7;61.14
32452;BME280;45528;52.102;5.242;2022-11-15T08:07:06;100317.0;;;17.7;61.22
32452;BME280;45528;52.102;5.242;2022-11-15T08:10:20;100317.0;;;17.66;61.2
32452;BME280;45528;52.102;5.242;2022-11-15T08:11:56;100314.0;;;17.62;61.54
32452;BME280;45528;52.102;5.242;2022-11-15T08:13:32;100314.0;;;17.66;61.42
32452;BME280;45528;52.102;5.242;2022-11-15T08:16:45;100310.0;;;17.63;61.49
32452;BME280;45528;52.102;5.242;2022-11-15T08:18:21;100312.0;;;17.62;61.48
32452;BME280;45528;52.102;5.242;2022-11-15T08:19:58;100313.0;;;17.7;61.31
32452;BME280;45528;52.102;5.242;2022-11-15T08:21:35;100309.0;;;17.77;61.14
32452;BME280;45528;52.102;5.242;2022-11-15T08:24:48;100310.0;;;17.75;61.18
32452;BME280;45528;52.102;5.242;2022-11-15T08:26:26;100305.0;;;17.7;61.24
32452;BME280;45528;52.102;5.242;2022-11-15T08:28:05;100310.0;;;17.77;61.02
32452;BME280;45528;52.102;5.242;2022-11-15T08:31:20;100310.0;;;17.77;61.02
32452;BME280;45528;52.102;5.242;2022-11-15T08:32:58;100309.0;;;17.7;61.02
32452;BME280;45528;52.102;5.242;2022-11-15T08:34:34;100306.0;;;17.78;60.97
32452;BME280;45528;52.102;5.242;2022-11-15T08:37:52;100300.0;;;17.7;60.89
32452;BME280;45528;52.102;5.242;2022-11-15T08:39:29;100300.0;;;17.75;60.83
32452;BME280;45528;52.102;5.242;2022-11-15T08:41:06;100298.0;;;17.72;60.85
32452;BME280;45528;52.102;5.242;2022-11-15T08:42:42;100292.0;;;17.81;60.69
32452;BME280;45528;52.102;5.242;2022-11-15T08:45:58;100289.0;;;17.81;60.57
32452;BME280;45528;52.102;5.242;2022-11-15T08:47:34;100289.0;;;17.75;60.68
32452;BME280;45528;52.102;5.242;2022-11-15T08:49:11;100282.0;;;17.88;60.44
32452;BME280;45528;52.102;5.242;2022-11-15T08:52:23;100281.0;;;17.91;60.35
32452;BME280;45528;52.102;5.242;2022-11-15T08:53:59;100284.0;;;17.91;60.33
32452;BME280;45528;52.102;5.242;2022-11-15T08:55:36;100281.0;;;17.95;60.27
32452;BME280;45528;52.102;5.242;2022-11-15T08:57:14;100282.0;;;17.95;60.24
32452;BME280;45528;52.102;5.242;2022-11-15T09:00:27;100285.0;;;17.96;60.23
32452;BME280;45528;52.102;5.242;2022-11-15T09:02:04;100289.0;;;17.98;60.16
32452;BME280;45528;52.102;5.242;2022-11-15T09:03:40;100297.0;;;18.07;60.06
32452;BME280;45528;52.102;5.242;2022-11-15T09:06:55;100291.0;;;18.12;59.85
32452;BME280;45528;52.102;5.242;2022-11-15T09:08:31;100291.0;;;18.18;59.87
32452;BME280;45528;52.102;5.242;2022-11-15T09:10:08;100291.0;;;18.22;59.71
32452;BME280;45528;52.102;5.242;2022-11-15T09:13:20;100292.0;;;18.23;59.56
32452;BME280;45528;52.102;5.242;2022-11-15T09:14:56;100291.0;;;18.2;59.55
32452;BME280;45528;52.102;5.242;2022-11-15T09:16:34;100290.0;;;18.2;59.55
32452;BME280;45528;52.102;5.242;2022-11-15T09:18:10;100287.0;;;18.21;59.58
32452;BME280;45528;52.102;5.242;2022-11-15T09:21:21;100284.0;;;18.23;59.66
32452;BME280;45528;52.102;5.242;2022-11-15T09:22:59;100284.0;;;18.23;59.74
32452;BME280;45528;52.102;5.242;2022-11-15T09:24:35;100280.0;;;18.27;59.33
32452;BME280;45528;52.102;5.242;2022-11-15T09:27:49;100274.0;;;18.41;58.95
32452;BME280;45528;52.102;5.242;2022-11-15T09:29:25;100276.0;;;18.18;59.08
32452;BME280;45528;52.102;5.242;2022-11-15T09:31:04;100272.0;;;18.34;58.72
32452;BME280;45528;52.102;5.242;2022-11-15T09:34:18;100268.0;;;18.31;58.77
32452;BME280;45528;52.102;5.242;2022-11-15T09:35:59;100272.0;;;18.46;58.43
32452;BME280;45528;52.102;5.242;2022-11-15T09:37:35;100270.0;;;18.39;58.47
32452;BME280;45528;52.102;5.242;2022-11-15T09:39:11;100265.0;;;18.43;58.35
32452;BME280;45528;52.102;5.242;2022-11-15T09:42:53;100267.0;;;18.43;58.24
32452;BME280;45528;52.102;5.242;2022-11-15T09:44:43;100262.0;;;18.34;58.21
32452;BME280;45528;52.102;5.242;2022-11-15T09:46:28;100261.0;;;18.39;57.89
32452;BME280;45528;52.102;5.242;2022-11-15T09:48:33;100264.0;;;18.41;57.94
32452;BME280;45528;52.102;5.242;2022-11-15T09:50:31;100272.0;;;18.45;57.73
32452;BME280;45528;52.102;5.242;2022-11-15T09:52:10;100272.0;;;18.43;57.59
32452;BME280;45528;52.102;5.242;2022-11-15T09:53:51;100269.0;;;18.34;57.68
32452;BME280;45528;52.102;5.242;2022-11-15T09:57:37;100266.0;;;18.31;57.65
32452;BME280;45528;52.102;5.242;2022-11-15T09:59:58;100266.0;;;18.54;57.49
32452;BME280;45528;52.102;5.242;2022-11-15T10:01:44;100271.0;;;18.52;56.97
32452;BME280;45528;52.102;5.242;2022-11-15T10:03:29;100269.0;;;18.55;56.94
32452;BME280;45528;52.102;5.242;2022-11-15T10:05:11;100267.0;;;18.59;56.58
32452;BME280;45528;52.102;5.242;2022-11-15T10:06:55;100268.0;;;18.73;56.34
32452;BME280;45528;52.102;5.242;2022-11-15T10:08:51;100259.0;;;18.84;56.09
32452;BME280;45528;52.102;5.242;2022-11-15T10:10:36;100259.0;;;18.68;55.76
32452;BME280;45528;52.102;5.242;2022-11-15T10:13:56;100255.0;;;18.36;56.05
32452;BME280;45528;52.102;5.242;2022-11-15T10:15:35;100255.0;;;18.59;55.34
32452;BME280;45528;52.102;5.242;2022-11-15T10:17:24;100249.0;;;18.61;55.31
32452;BME280;45528;52.102;5.242;2022-11-15T10:20:14;100251.0;;;18.66;55.47
32452;BME280;45528;52.102;5.242;2022-11-15T10:22:03;100255.0;;;18.37;55.76
32452;BME280;45528;52.102;5.242;2022-11-15T10:23:44;100247.0;;;18.39;55.01
32452;BME280;45528;52.102;5.242;2022-11-15T10:25:23;100246.0;;;18.54;55.01
32452;BME280;45528;52.102;5.242;2022-11-15T10:28:37;100243.0;;;18.61;54.79
32452;BME280;45528;52.102;5.242;2022-11-15T10:30:16;100233.0;;;18.36;55.09
32452;BME280;45528;52.102;5.242;2022-11-15T10:31:53;100225.0;;;18.64;54.46
32452;BME280;45528;52.102;5.242;2022-11-15T10:33:32;100223.0;;;18.78;54.47
32452;BME280;45528;52.102;5.242;2022-11-15T10:37:03;100224.0;;;18.71;54.38
32452;BME280;45528;52.102;5.242;2022-11-15T10:38:51;100219.0;;;18.79;54.01
32452;BME280;45528;52.102;5.242;2022-11-15T10:40:29;100222.0;;;18.88;53.91
32452;BME280;45528;52.102;5.242;2022-11-15T10:42:16;100222.0;;;18.86;53.8
32452;BME280;45528;52.102;5.242;2022-11-15T10:44:22;100216.0;;;18.86;53.71
32452;BME280;45528;52.102;5.242;2022-11-15T10:46:19;100208.0;;;18.98;53.51
32452;BME280;45528;52.102;5.242;2022-11-15T10:50:05;100197.0;;;18.79;53.78
32452;BME280;45528;52.102;5.242;2022-11-15T10:51:45;100197.0;;;19.03;53.11
32452;BME280;45528;52.102;5.242;2022-11-15T10:53:28;100200.0;;;18.91;53.27
32452;BME280;45528;52.102;5.242;2022-11-15T10:55:22;100192.0;;;19.13;52.56
32452;BME280;45528;52.102;5.242;2022-11-15T10:57:05;100183.0;;;19.04;52.26
32452;BME280;45528;52.102;5.242;2022-11-15T10:58:50;100193.0;;;19.16;52.06
32452;BME280;45528;52.102;5.242;2022-11-15T11:02:27;100186.0;;;19.11;52.0
32452;BME280;45528;52.102;5.242;2022-11-15T11:04:11;100182.0;;;19.21;52.09
32452;BME280;45528;52.102;5.242;2022-11-15T11:05:47;100184.0;;;19.13;51.71
32452;BME280;45528;52.102;5.242;2022-11-15T11:07:24;100181.0;;;19.0;51.85
32452;BME280;45528;52.102;5.242;2022-11-15T11:09:05;100178.0;;;19.27;51.53
32452;BME280;45528;52.102;5.242;2022-11-15T11:12:31;100175.0;;;19.29;51.78
32452;BME280;45528;52.102;5.242;2022-11-15T11:14:11;100169.0;;;19.41;51.38